sensor_id;sensor_type;location;lat;lon;timestamp;P1;durP1;ratioP1;P2;durP2;ratioP2
12363;SDS011;6246;50.826;4.712;2023-07-22T00:00:16;5.38;;;4.70;;
12363;SDS011;6246;50.826;4.712;2023-07-22T00:02:42;4.83;;;4.40;;
12363;SDS011;6246;50.826;4.712;2023-07-22T00:05:09;4.60;;;4.20;;
12363;SDS011;6246;50.826;4.712;2023-07-22T00:07:35;6.83;;;4.57;;
12363;SDS011;6246;50.826;4.712;2023-07-22T00:10:01;4.73;;;4.33;;
12363;SDS011;6246;50.826;4.712;2023-07-22T00:12:31;6.80;;;4.60;;
12363;SDS011;6246;50.826;4.712;2023-07-22T00:14:57;5.13;;;4.40;;
12363;SDS011;6246;50.826;4.712;2023-07-22T00:17:23;4.43;;;4.03;;
12363;SDS011;6246;50.826;4.712;2023-07-22T00:19:49;4.87;;;4.00;;
12363;SDS011;6246;50.826;4.712;2023-07-22T00:22:15;6.53;;;4.43;;
12363;SDS011;6246;50.826;4.712;2023-07-22T00:24:42;4.07;;;3.77;;
12363;SDS011;6246;50.826;4.712;2023-07-22T00:27:08;4.77;;;4.00;;
12363;SDS011;6246;50.826;4.712;2023-07-22T00:29:35;4.30;;;3.90;;
12363;SDS011;6246;50.826;4.712;2023-07-22T00:32:01;4.97;;;4.33;;
12363;SDS011;6246;50.826;4.712;2023-07-22T00:34:27;4.70;;;4.17;;
12363;SDS011;6246;50.826;4.712;2023-07-22T00:36:53;6.47;;;4.10;;
12363;SDS011;6246;50.826;4.712;2023-07-22T00:39:19;5.43;;;4.33;;
12363;SDS011;6246;50.826;4.712;2023-07-22T00:41:45;4.15;;;3.72;;
12363;SDS011;6246;50.826;4.712;2023-07-22T00:44:12;3.90;;;3.60;;
12363;SDS011;6246;50.826;4.712;2023-07-22T00:46:38;4.50;;;4.10;;
12363;SDS011;6246;50.826;4.712;2023-07-22T00:49:07;4.10;;;3.67;;
12363;SDS011;6246;50.826;4.712;2023-07-22T00:51:34;4.27;;;3.87;;
12363;SDS011;6246;50.826;4.712;2023-07-22T00:54:00;4.17;;;3.83;;
12363;SDS011;6246;50.826;4.712;2023-07-22T00:56:26;4.27;;;3.87;;
12363;SDS011;6246;50.826;4.712;2023-07-22T00:58:52;4.67;;;3.93;;
12363;SDS011;6246;50.826;4.712;2023-07-22T01:01:18;4.67;;;3.97;;
12363;SDS011;6246;50.826;4.712;2023-07-22T01:03:44;4.60;;;4.20;;
12363;SDS011;6246;50.826;4.712;2023-07-22T01:06:11;4.47;;;4.07;;
12363;SDS011;6246;50.826;4.712;2023-07-22T01:08:38;4.20;;;3.77;;
12363;SDS011;6246;50.826;4.712;2023-07-22T01:11:05;4.10;;;3.80;;
12363;SDS011;6246;50.826;4.712;2023-07-22T01:13:31;4.07;;;3.77;;
12363;SDS011;6246;50.826;4.712;2023-07-22T01:15:57;4.15;;;3.75;;
12363;SDS011;6246;50.826;4.712;2023-07-22T01:18:23;4.20;;;3.90;;
12363;SDS011;6246;50.826;4.712;2023-07-22T01:20:49;4.27;;;3.97;;
12363;SDS011;6246;50.826;4.712;2023-07-22T01:23:16;5.17;;;3.97;;
12363;SDS011;6246;50.826;4.712;2023-07-22T01:25:42;4.30;;;3.90;;
12363;SDS011;6246;50.826;4.712;2023-07-22T01:28:09;4.70;;;4.30;;
12363;SDS011;6246;50.826;4.712;2023-07-22T01:30:36;4.70;;;4.00;;
12363;SDS011;6246;50.826;4.712;2023-07-22T01:33:02;4.27;;;3.87;;
12363;SDS011;6246;50.826;4.712;2023-07-22T01:35:28;4.10;;;3.80;;
12363;SDS011;6246;50.826;4.712;2023-07-22T01:37:54;4.47;;;4.07;;
12363;SDS011;6246;50.826;4.712;2023-07-22T01:40:20;3.87;;;3.57;;
12363;SDS011;6246;50.826;4.712;2023-07-22T01:42:48;4.63;;;4.20;;
12363;SDS011;6246;50.826;4.712;2023-07-22T01:45:14;4.73;;;4.00;;
12363;SDS011;6246;50.826;4.712;2023-07-22T01:47:40;4.47;;;4.07;;
12363;SDS011;6246;50.826;4.712;2023-07-22T01:50:07;4.40;;;4.00;;
12363;SDS011;6246;50.826;4.712;2023-07-22T01:52:33;4.03;;;3.73;;
12363;SDS011;6246;50.826;4.712;2023-07-22T01:54:59;4.80;;;4.40;;
12363;SDS011;6246;50.826;4.712;2023-07-22T01:57:26;4.33;;;4.00;;
12363;SDS011;6246;50.826;4.712;2023-07-22T01:59:52;4.40;;;4.03;;
12363;SDS011;6246;50.826;4.712;2023-07-22T02:02:18;4.27;;;3.97;;
12363;SDS011;6246;50.826;4.712;2023-07-22T02:04:45;4.37;;;3.97;;
12363;SDS011;6246;50.826;4.712;2023-07-22T02:07:11;4.43;;;4.03;;
12363;SDS011;6246;50.826;4.712;2023-07-22T02:09:37;4.60;;;4.20;;
12363;SDS011;6246;50.826;4.712;2023-07-22T02:12:03;4.27;;;3.97;;
12363;SDS011;6246;50.826;4.712;2023-07-22T02:14:29;4.50;;;4.20;;
12363;SDS011;6246;50.826;4.712;2023-07-22T02:16:55;4.70;;;4.30;;
12363;SDS011;6246;50.826;4.712;2023-07-22T02:19:21;4.97;;;4.47;;
12363;SDS011;6246;50.826;4.712;2023-07-22T02:21:47;4.67;;;4.27;;
12363;SDS011;6246;50.826;4.712;2023-07-22T02:24:14;4.63;;;4.23;;
12363;SDS011;6246;50.826;4.712;2023-07-22T02:26:40;4.63;;;4.23;;
12363;SDS011;6246;50.826;4.712;2023-07-22T02:29:07;4.97;;;4.53;;
12363;SDS011;6246;50.826;4.712;2023-07-22T02:31:33;4.97;;;4.47;;
12363;SDS011;6246;50.826;4.712;2023-07-22T02:33:59;5.10;;;4.60;;
12363;SDS011;6246;50.826;4.712;2023-07-22T02:36:25;4.57;;;4.17;;
12363;SDS011;6246;50.826;4.712;2023-07-22T02:38:51;4.90;;;4.20;;
12363;SDS011;6246;50.826;4.712;2023-07-22T02:41:17;4.70;;;4.30;;
12363;SDS011;6246;50.826;4.712;2023-07-22T02:43:43;5.33;;;4.60;;
12363;SDS011;6246;50.826;4.712;2023-07-22T02:46:09;5.13;;;4.63;;
12363;SDS011;6246;50.826;4.712;2023-07-22T02:48:35;4.70;;;4.30;;
12363;SDS011;6246;50.826;4.712;2023-07-22T02:51:05;5.17;;;4.73;;
12363;SDS011;6246;50.826;4.712;2023-07-22T02:53:31;5.87;;;4.97;;
12363;SDS011;6246;50.826;4.712;2023-07-22T02:55:58;4.80;;;4.30;;
12363;SDS011;6246;50.826;4.712;2023-07-22T02:58:24;5.23;;;4.53;;
12363;SDS011;6246;50.826;4.712;2023-07-22T03:00:50;4.50;;;4.13;;
12363;SDS011;6246;50.826;4.712;2023-07-22T03:03:16;5.00;;;4.50;;
12363;SDS011;6246;50.826;4.712;2023-07-22T03:05:44;5.10;;;4.50;;
12363;SDS011;6246;50.826;4.712;2023-07-22T03:08:10;5.20;;;4.70;;
12363;SDS011;6246;50.826;4.712;2023-07-22T03:10:36;6.67;;;4.73;;
12363;SDS011;6246;50.826;4.712;2023-07-22T03:13:02;5.67;;;4.53;;
12363;SDS011;6246;50.826;4.712;2023-07-22T03:15:28;5.13;;;4.63;;
12363;SDS011;6246;50.826;4.712;2023-07-22T03:17:54;4.80;;;4.40;;
12363;SDS011;6246;50.826;4.712;2023-07-22T03:20:21;4.97;;;4.57;;
12363;SDS011;6246;50.826;4.712;2023-07-22T03:22:48;4.60;;;4.30;;
12363;SDS011;6246;50.826;4.712;2023-07-22T03:25:16;5.93;;;4.77;;
12363;SDS011;6246;50.826;4.712;2023-07-22T03:27:42;5.30;;;4.80;;
12363;SDS011;6246;50.826;4.712;2023-07-22T03:30:11;5.67;;;4.67;;
12363;SDS011;6246;50.826;4.712;2023-07-22T03:32:49;7.13;;;4.80;;
12363;SDS011;6246;50.826;4.712;2023-07-22T03:35:16;5.20;;;4.73;;
12363;SDS011;6246;50.826;4.712;2023-07-22T03:37:42;5.50;;;5.00;;
12363;SDS011;6246;50.826;4.712;2023-07-22T03:40:08;5.50;;;5.03;;
12363;SDS011;6246;50.826;4.712;2023-07-22T03:42:54;5.37;;;4.40;;
12363;SDS011;6246;50.826;4.712;2023-07-22T03:45:21;4.73;;;4.33;;
12363;SDS011;6246;50.826;4.712;2023-07-22T03:47:57;5.40;;;4.90;;
12363;SDS011;6246;50.826;4.712;2023-07-22T03:50:23;5.87;;;4.83;;
12363;SDS011;6246;50.826;4.712;2023-07-22T03:52:49;5.23;;;4.73;;
12363;SDS011;6246;50.826;4.712;2023-07-22T03:55:15;5.70;;;5.10;;
12363;SDS011;6246;50.826;4.712;2023-07-22T03:57:41;6.57;;;5.07;;
12363;SDS011;6246;50.826;4.712;2023-07-22T04:00:07;5.43;;;4.93;;
12363;SDS011;6246;50.826;4.712;2023-07-22T04:02:37;5.33;;;4.83;;
12363;SDS011;6246;50.826;4.712;2023-07-22T04:05:03;5.13;;;4.63;;
12363;SDS011;6246;50.826;4.712;2023-07-22T04:07:29;5.50;;;4.77;;
12363;SDS011;6246;50.826;4.712;2023-07-22T04:09:55;5.27;;;4.63;;
12363;SDS011;6246;50.826;4.712;2023-07-22T04:12:22;6.50;;;5.03;;
12363;SDS011;6246;50.826;4.712;2023-07-22T04:14:48;5.47;;;4.87;;
12363;SDS011;6246;50.826;4.712;2023-07-22T04:17:14;5.50;;;4.93;;
12363;SDS011;6246;50.826;4.712;2023-07-22T04:19:40;5.20;;;4.80;;
12363;SDS011;6246;50.826;4.712;2023-07-22T04:22:08;5.47;;;4.97;;
12363;SDS011;6246;50.826;4.712;2023-07-22T04:24:34;5.77;;;5.20;;
12363;SDS011;6246;50.826;4.712;2023-07-22T04:27:00;5.70;;;5.03;;
12363;SDS011;6246;50.826;4.712;2023-07-22T04:29:26;5.90;;;4.93;;
12363;SDS011;6246;50.826;4.712;2023-07-22T04:31:56;5.40;;;4.90;;
12363;SDS011;6246;50.826;4.712;2023-07-22T04:34:23;5.73;;;5.07;;
12363;SDS011;6246;50.826;4.712;2023-07-22T04:36:50;6.03;;;4.80;;
12363;SDS011;6246;50.826;4.712;2023-07-22T04:39:16;5.67;;;5.17;;
12363;SDS011;6246;50.826;4.712;2023-07-22T04:41:42;5.40;;;4.90;;
12363;SDS011;6246;50.826;4.712;2023-07-22T04:44:08;5.60;;;5.10;;
12363;SDS011;6246;50.826;4.712;2023-07-22T04:46:34;6.03;;;5.43;;
12363;SDS011;6246;50.826;4.712;2023-07-22T04:49:00;5.50;;;5.00;;
12363;SDS011;6246;50.826;4.712;2023-07-22T04:51:27;5.73;;;4.80;;
12363;SDS011;6246;50.826;4.712;2023-07-22T04:53:53;5.67;;;4.83;;
12363;SDS011;6246;50.826;4.712;2023-07-22T04:56:19;5.50;;;5.00;;
12363;SDS011;6246;50.826;4.712;2023-07-22T04:58:46;5.60;;;4.93;;
12363;SDS011;6246;50.826;4.712;2023-07-22T05:01:12;7.20;;;5.23;;
12363;SDS011;6246;50.826;4.712;2023-07-22T05:03:37;5.30;;;4.80;;
12363;SDS011;6246;50.826;4.712;2023-07-22T05:06:05;5.47;;;4.97;;
12363;SDS011;6246;50.826;4.712;2023-07-22T05:08:31;5.03;;;4.63;;
12363;SDS011;6246;50.826;4.712;2023-07-22T05:10:57;5.87;;;5.00;;
12363;SDS011;6246;50.826;4.712;2023-07-22T05:13:23;6.07;;;5.03;;
12363;SDS011;6246;50.826;4.712;2023-07-22T05:15:49;6.00;;;4.60;;
12363;SDS011;6246;50.826;4.712;2023-07-22T05:18:15;6.33;;;5.20;;
12363;SDS011;6246;50.826;4.712;2023-07-22T05:20:41;5.23;;;4.73;;
12363;SDS011;6246;50.826;4.712;2023-07-22T05:23:07;5.03;;;4.50;;
12363;SDS011;6246;50.826;4.712;2023-07-22T05:25:33;5.30;;;4.53;;
12363;SDS011;6246;50.826;4.712;2023-07-22T05:27:59;5.60;;;5.03;;
12363;SDS011;6246;50.826;4.712;2023-07-22T05:30:25;5.50;;;5.00;;
12363;SDS011;6246;50.826;4.712;2023-07-22T05:32:52;5.30;;;4.80;;
12363;SDS011;6246;50.826;4.712;2023-07-22T05:35:18;5.87;;;4.80;;
12363;SDS011;6246;50.826;4.712;2023-07-22T05:37:44;5.27;;;4.77;;
12363;SDS011;6246;50.826;4.712;2023-07-22T05:40:10;5.37;;;4.87;;
12363;SDS011;6246;50.826;4.712;2023-07-22T05:42:36;5.63;;;4.50;;
12363;SDS011;6246;50.826;4.712;2023-07-22T05:45:03;5.40;;;4.90;;
12363;SDS011;6246;50.826;4.712;2023-07-22T05:47:29;5.30;;;4.80;;
12363;SDS011;6246;50.826;4.712;2023-07-22T05:49:55;5.50;;;4.90;;
12363;SDS011;6246;50.826;4.712;2023-07-22T05:52:21;5.13;;;4.63;;
12363;SDS011;6246;50.826;4.712;2023-07-22T05:54:47;5.93;;;5.10;;
12363;SDS011;6246;50.826;4.712;2023-07-22T05:57:13;5.07;;;4.60;;
12363;SDS011;6246;50.826;4.712;2023-07-22T05:59:39;18.40;;;5.83;;
12363;SDS011;6246;50.826;4.712;2023-07-22T06:02:06;5.33;;;4.80;;
12363;SDS011;6246;50.826;4.712;2023-07-22T06:04:32;5.27;;;4.77;;
12363;SDS011;6246;50.826;4.712;2023-07-22T06:06:58;4.97;;;4.57;;
12363;SDS011;6246;50.826;4.712;2023-07-22T06:09:24;6.23;;;5.17;;
12363;SDS011;6246;50.826;4.712;2023-07-22T06:11:50;6.07;;;4.70;;
12363;SDS011;6246;50.826;4.712;2023-07-22T06:14:16;5.13;;;4.40;;
12363;SDS011;6246;50.826;4.712;2023-07-22T06:16:42;5.73;;;5.10;;
12363;SDS011;6246;50.826;4.712;2023-07-22T06:19:08;5.20;;;4.30;;
12363;SDS011;6246;50.826;4.712;2023-07-22T06:21:34;5.83;;;5.20;;
12363;SDS011;6246;50.826;4.712;2023-07-22T06:24:00;6.07;;;4.90;;
12363;SDS011;6246;50.826;4.712;2023-07-22T06:26:26;5.90;;;4.40;;
12363;SDS011;6246;50.826;4.712;2023-07-22T06:28:52;5.37;;;4.83;;
12363;SDS011;6246;50.826;4.712;2023-07-22T06:31:18;5.93;;;5.20;;
12363;SDS011;6246;50.826;4.712;2023-07-22T06:33:44;6.13;;;4.67;;
12363;SDS011;6246;50.826;4.712;2023-07-22T06:36:11;9.87;;;5.03;;
12363;SDS011;6246;50.826;4.712;2023-07-22T06:38:37;6.50;;;4.70;;
12363;SDS011;6246;50.826;4.712;2023-07-22T06:41:03;5.70;;;4.87;;
12363;SDS011;6246;50.826;4.712;2023-07-22T06:43:29;6.73;;;4.73;;
12363;SDS011;6246;50.826;4.712;2023-07-22T06:45:55;7.10;;;4.50;;
12363;SDS011;6246;50.826;4.712;2023-07-22T06:48:21;7.80;;;4.53;;
12363;SDS011;6246;50.826;4.712;2023-07-22T06:50:50;10.07;;;5.00;;
12363;SDS011;6246;50.826;4.712;2023-07-22T06:53:16;5.63;;;4.60;;
12363;SDS011;6246;50.826;4.712;2023-07-22T06:55:51;6.53;;;4.80;;
12363;SDS011;6246;50.826;4.712;2023-07-22T06:58:18;7.13;;;4.70;;
12363;SDS011;6246;50.826;4.712;2023-07-22T07:00:45;6.47;;;4.40;;
12363;SDS011;6246;50.826;4.712;2023-07-22T07:03:11;7.50;;;4.80;;
12363;SDS011;6246;50.826;4.712;2023-07-22T07:05:37;8.87;;;4.67;;
12363;SDS011;6246;50.826;4.712;2023-07-22T07:08:06;7.87;;;4.53;;
12363;SDS011;6246;50.826;4.712;2023-07-22T07:10:36;6.37;;;4.50;;
12363;SDS011;6246;50.826;4.712;2023-07-22T07:13:02;6.03;;;4.50;;
12363;SDS011;6246;50.826;4.712;2023-07-22T07:15:28;5.10;;;4.53;;
12363;SDS011;6246;50.826;4.712;2023-07-22T07:17:54;6.10;;;4.33;;
12363;SDS011;6246;50.826;4.712;2023-07-22T07:20:20;4.70;;;4.23;;
12363;SDS011;6246;50.826;4.712;2023-07-22T07:22:46;6.90;;;4.37;;
12363;SDS011;6246;50.826;4.712;2023-07-22T07:25:12;8.63;;;4.80;;
12363;SDS011;6246;50.826;4.712;2023-07-22T07:27:40;6.50;;;4.50;;
12363;SDS011;6246;50.826;4.712;2023-07-22T07:30:06;6.37;;;4.40;;
12363;SDS011;6246;50.826;4.712;2023-07-22T07:32:33;5.27;;;4.40;;
12363;SDS011;6246;50.826;4.712;2023-07-22T07:34:59;7.53;;;4.27;;
12363;SDS011;6246;50.826;4.712;2023-07-22T07:37:25;6.10;;;4.17;;
12363;SDS011;6246;50.826;4.712;2023-07-22T07:39:51;4.90;;;3.80;;
12363;SDS011;6246;50.826;4.712;2023-07-22T07:42:17;5.00;;;3.93;;
12363;SDS011;6246;50.826;4.712;2023-07-22T07:44:44;5.93;;;4.00;;
12363;SDS011;6246;50.826;4.712;2023-07-22T07:47:10;5.17;;;4.20;;
12363;SDS011;6246;50.826;4.712;2023-07-22T07:49:36;6.13;;;4.17;;
12363;SDS011;6246;50.826;4.712;2023-07-22T07:52:02;5.50;;;4.20;;
12363;SDS011;6246;50.826;4.712;2023-07-22T07:54:28;5.47;;;4.27;;
12363;SDS011;6246;50.826;4.712;2023-07-22T07:56:54;4.67;;;3.77;;
12363;SDS011;6246;50.826;4.712;2023-07-22T07:59:20;5.40;;;4.20;;
12363;SDS011;6246;50.826;4.712;2023-07-22T08:01:46;5.43;;;4.17;;
12363;SDS011;6246;50.826;4.712;2023-07-22T08:04:12;4.30;;;3.90;;
12363;SDS011;6246;50.826;4.712;2023-07-22T08:06:38;4.30;;;3.90;;
12363;SDS011;6246;50.826;4.712;2023-07-22T08:09:04;5.55;;;4.30;;
12363;SDS011;6246;50.826;4.712;2023-07-22T08:11:30;4.20;;;3.80;;
12363;SDS011;6246;50.826;4.712;2023-07-22T08:13:56;4.50;;;4.10;;
12363;SDS011;6246;50.826;4.712;2023-07-22T08:16:22;5.07;;;3.90;;
12363;SDS011;6246;50.826;4.712;2023-07-22T08:18:49;4.47;;;3.97;;
12363;SDS011;6246;50.826;4.712;2023-07-22T08:21:15;4.30;;;3.90;;
12363;SDS011;6246;50.826;4.712;2023-07-22T08:23:41;4.78;;;3.85;;
12363;SDS011;6246;50.826;4.712;2023-07-22T08:26:10;4.20;;;3.80;;
12363;SDS011;6246;50.826;4.712;2023-07-22T08:28:37;5.10;;;4.07;;
12363;SDS011;6246;50.826;4.712;2023-07-22T08:31:03;4.63;;;3.73;;
12363;SDS011;6246;50.826;4.712;2023-07-22T08:33:29;4.05;;;3.70;;
12363;SDS011;6246;50.826;4.712;2023-07-22T08:35:55;5.63;;;3.78;;
12363;SDS011;6246;50.826;4.712;2023-07-22T08:38:21;6.33;;;3.50;;
12363;SDS011;6246;50.826;4.712;2023-07-22T08:40:48;4.00;;;3.58;;
12363;SDS011;6246;50.826;4.712;2023-07-22T08:43:16;4.93;;;3.75;;
12363;SDS011;6246;50.826;4.712;2023-07-22T08:45:43;4.20;;;3.90;;
12363;SDS011;6246;50.826;4.712;2023-07-22T08:48:09;3.75;;;3.45;;
12363;SDS011;6246;50.826;4.712;2023-07-22T08:53:14;3.95;;;3.45;;
12363;SDS011;6246;50.826;4.712;2023-07-22T08:55:41;3.83;;;3.50;;
12363;SDS011;6246;50.826;4.712;2023-07-22T08:58:10;4.73;;;3.70;;
12363;SDS011;6246;50.826;4.712;2023-07-22T09:00:36;4.03;;;3.50;;
12363;SDS011;6246;50.826;4.712;2023-07-22T09:03:02;4.07;;;3.67;;
12363;SDS011;6246;50.826;4.712;2023-07-22T09:05:30;4.32;;;3.58;;
12363;SDS011;6246;50.826;4.712;2023-07-22T09:07:56;3.80;;;3.50;;
12363;SDS011;6246;50.826;4.712;2023-07-22T09:10:24;4.53;;;3.40;;
12363;SDS011;6246;50.826;4.712;2023-07-22T09:12:51;4.78;;;3.30;;
12363;SDS011;6246;50.826;4.712;2023-07-22T09:15:17;4.18;;;3.60;;
12363;SDS011;6246;50.826;4.712;2023-07-22T09:17:43;3.47;;;3.20;;
12363;SDS011;6246;50.826;4.712;2023-07-22T09:20:11;3.88;;;3.58;;
12363;SDS011;6246;50.826;4.712;2023-07-22T09:22:42;3.63;;;3.33;;
12363;SDS011;6246;50.826;4.712;2023-07-22T09:25:15;3.47;;;3.17;;
12363;SDS011;6246;50.826;4.712;2023-07-22T09:27:41;3.28;;;2.97;;
12363;SDS011;6246;50.826;4.712;2023-07-22T09:32:53;4.78;;;3.20;;
12363;SDS011;6246;50.826;4.712;2023-07-22T09:35:19;4.88;;;3.00;;
12363;SDS011;6246;50.826;4.712;2023-07-22T09:37:45;3.75;;;3.30;;
12363;SDS011;6246;50.826;4.712;2023-07-22T09:42:48;3.28;;;2.97;;
12363;SDS011;6246;50.826;4.712;2023-07-22T09:45:15;3.60;;;3.30;;
12363;SDS011;6246;50.826;4.712;2023-07-22T09:47:41;3.67;;;3.38;;
12363;SDS011;6246;50.826;4.712;2023-07-22T09:50:10;3.10;;;2.90;;
12363;SDS011;6246;50.826;4.712;2023-07-22T09:52:47;3.17;;;2.88;;
12363;SDS011;6246;50.826;4.712;2023-07-22T09:55:17;3.70;;;3.38;;
12363;SDS011;6246;50.826;4.712;2023-07-22T09:57:44;3.08;;;2.88;;
12363;SDS011;6246;50.826;4.712;2023-07-22T10:00:11;3.15;;;2.88;;
12363;SDS011;6246;50.826;4.712;2023-07-22T10:02:39;3.45;;;3.15;;
12363;SDS011;6246;50.826;4.712;2023-07-22T10:05:06;3.17;;;2.97;;
12363;SDS011;6246;50.826;4.712;2023-07-22T10:07:33;3.10;;;2.90;;
12363;SDS011;6246;50.826;4.712;2023-07-22T10:09:59;3.22;;;2.92;;
12363;SDS011;6246;50.826;4.712;2023-07-22T10:12:25;2.90;;;2.70;;
12363;SDS011;6246;50.826;4.712;2023-07-22T10:14:52;3.08;;;2.70;;
12363;SDS011;6246;50.826;4.712;2023-07-22T10:17:19;3.85;;;3.20;;
12363;SDS011;6246;50.826;4.712;2023-07-22T10:19:45;3.15;;;2.85;;
12363;SDS011;6246;50.826;4.712;2023-07-22T10:22:11;2.53;;;2.33;;
12363;SDS011;6246;50.826;4.712;2023-07-22T10:24:38;3.10;;;2.80;;
12363;SDS011;6246;50.826;4.712;2023-07-22T10:27:05;3.30;;;3.00;;
12363;SDS011;6246;50.826;4.712;2023-07-22T10:29:32;2.90;;;2.70;;
12363;SDS011;6246;50.826;4.712;2023-07-22T10:31:59;3.20;;;3.00;;
12363;SDS011;6246;50.826;4.712;2023-07-22T10:34:25;2.88;;;2.67;;
12363;SDS011;6246;50.826;4.712;2023-07-22T10:36:51;2.75;;;2.55;;
12363;SDS011;6246;50.826;4.712;2023-07-22T10:39:26;3.70;;;2.47;;
12363;SDS011;6246;50.826;4.712;2023-07-22T10:42:05;3.10;;;2.90;;
12363;SDS011;6246;50.826;4.712;2023-07-22T10:44:32;3.13;;;2.90;;
12363;SDS011;6246;50.826;4.712;2023-07-22T10:46:58;3.50;;;2.50;;
12363;SDS011;6246;50.826;4.712;2023-07-22T10:49:27;2.83;;;2.63;;
12363;SDS011;6246;50.826;4.712;2023-07-22T10:52:03;2.88;;;2.67;;
12363;SDS011;6246;50.826;4.712;2023-07-22T10:54:32;2.67;;;2.47;;
12363;SDS011;6246;50.826;4.712;2023-07-22T10:57:02;2.92;;;2.72;;
12363;SDS011;6246;50.826;4.712;2023-07-22T10:59:29;2.85;;;2.20;;
12363;SDS011;6246;50.826;4.712;2023-07-22T11:02:01;2.80;;;2.60;;
12363;SDS011;6246;50.826;4.712;2023-07-22T11:04:27;3.33;;;2.42;;
12363;SDS011;6246;50.826;4.712;2023-07-22T11:06:57;3.00;;;2.53;;
12363;SDS011;6246;50.826;4.712;2023-07-22T11:14:31;4.75;;;2.50;;
12363;SDS011;6246;50.826;4.712;2023-07-22T11:16:57;3.13;;;2.83;;
12363;SDS011;6246;50.826;4.712;2023-07-22T11:19:24;4.82;;;2.85;;
12363;SDS011;6246;50.826;4.712;2023-07-22T11:21:51;4.22;;;2.45;;
12363;SDS011;6246;50.826;4.712;2023-07-22T11:24:18;3.20;;;2.60;;
12363;SDS011;6246;50.826;4.712;2023-07-22T11:26:47;2.92;;;2.50;;
12363;SDS011;6246;50.826;4.712;2023-07-22T11:29:13;4.00;;;2.67;;
12363;SDS011;6246;50.826;4.712;2023-07-22T11:31:40;3.80;;;2.70;;
12363;SDS011;6246;50.826;4.712;2023-07-22T11:34:08;3.15;;;2.50;;
12363;SDS011;6246;50.826;4.712;2023-07-22T11:36:34;6.78;;;2.90;;
12363;SDS011;6246;50.826;4.712;2023-07-22T11:41:33;2.78;;;2.42;;
12363;SDS011;6246;50.826;4.712;2023-07-22T11:43:59;3.33;;;2.22;;
12363;SDS011;6246;50.826;4.712;2023-07-22T11:46:26;2.13;;;1.92;;
12363;SDS011;6246;50.826;4.712;2023-07-22T11:48:53;4.07;;;2.60;;
12363;SDS011;6246;50.826;4.712;2023-07-22T11:51:20;3.17;;;2.13;;
12363;SDS011;6246;50.826;4.712;2023-07-22T11:53:46;2.33;;;2.10;;
12363;SDS011;6246;50.826;4.712;2023-07-22T11:56:17;2.42;;;2.20;;
12363;SDS011;6246;50.826;4.712;2023-07-22T11:58:43;2.58;;;2.28;;
12363;SDS011;6246;50.826;4.712;2023-07-22T12:01:13;3.38;;;2.70;;
12363;SDS011;6246;50.826;4.712;2023-07-22T12:03:40;4.55;;;2.20;;
12363;SDS011;6246;50.826;4.712;2023-07-22T12:06:07;3.30;;;2.33;;
12363;SDS011;6246;50.826;4.712;2023-07-22T12:08:35;3.60;;;2.15;;
12363;SDS011;6246;50.826;4.712;2023-07-22T12:11:01;2.17;;;2.00;;
12363;SDS011;6246;50.826;4.712;2023-07-22T12:13:29;2.55;;;2.35;;
12363;SDS011;6246;50.826;4.712;2023-07-22T12:18:27;2.30;;;2.10;;
12363;SDS011;6246;50.826;4.712;2023-07-22T12:20:53;2.15;;;2.05;;
12363;SDS011;6246;50.826;4.712;2023-07-22T12:23:19;3.10;;;2.10;;
12363;SDS011;6246;50.826;4.712;2023-07-22T12:25:46;2.25;;;2.03;;
12363;SDS011;6246;50.826;4.712;2023-07-22T12:28:12;2.63;;;2.05;;
12363;SDS011;6246;50.826;4.712;2023-07-22T12:30:38;2.40;;;2.20;;
12363;SDS011;6246;50.826;4.712;2023-07-22T12:33:04;2.13;;;1.92;;
12363;SDS011;6246;50.826;4.712;2023-07-22T12:35:30;2.45;;;1.60;;
12363;SDS011;6246;50.826;4.712;2023-07-22T12:37:56;4.00;;;2.42;;
12363;SDS011;6246;50.826;4.712;2023-07-22T12:40:22;3.33;;;2.58;;
12363;SDS011;6246;50.826;4.712;2023-07-22T12:42:48;2.33;;;1.90;;
12363;SDS011;6246;50.826;4.712;2023-07-22T12:45:14;1.98;;;1.88;;
12363;SDS011;6246;50.826;4.712;2023-07-22T12:47:40;3.00;;;1.73;;
12363;SDS011;6246;50.826;4.712;2023-07-22T12:50:06;3.75;;;2.47;;
12363;SDS011;6246;50.826;4.712;2023-07-22T12:52:32;2.28;;;2.10;;
12363;SDS011;6246;50.826;4.712;2023-07-22T12:54:58;1.92;;;1.83;;
12363;SDS011;6246;50.826;4.712;2023-07-22T12:57:24;1.92;;;1.77;;
12363;SDS011;6246;50.826;4.712;2023-07-22T12:59:50;5.38;;;1.88;;
12363;SDS011;6246;50.826;4.712;2023-07-22T13:02:16;2.85;;;2.17;;
12363;SDS011;6246;50.826;4.712;2023-07-22T13:04:42;2.42;;;2.22;;
12363;SDS011;6246;50.826;4.712;2023-07-22T13:07:11;1.95;;;1.67;;
12363;SDS011;6246;50.826;4.712;2023-07-22T13:09:37;4.60;;;2.25;;
12363;SDS011;6246;50.826;4.712;2023-07-22T13:12:04;11.55;;;4.45;;
12363;SDS011;6246;50.826;4.712;2023-07-22T13:14:30;9.15;;;3.95;;
12363;SDS011;6246;50.826;4.712;2023-07-22T13:16:57;8.85;;;3.53;;
12363;SDS011;6246;50.826;4.712;2023-07-22T13:19:23;5.50;;;2.63;;
12363;SDS011;6246;50.826;4.712;2023-07-22T13:21:49;4.25;;;2.83;;
12363;SDS011;6246;50.826;4.712;2023-07-22T13:24:15;4.22;;;3.00;;
12363;SDS011;6246;50.826;4.712;2023-07-22T13:26:41;4.63;;;2.60;;
12363;SDS011;6246;50.826;4.712;2023-07-22T13:29:08;7.28;;;2.67;;
12363;SDS011;6246;50.826;4.712;2023-07-22T13:31:34;3.70;;;2.55;;
12363;SDS011;6246;50.826;4.712;2023-07-22T13:34:00;4.63;;;2.75;;
12363;SDS011;6246;50.826;4.712;2023-07-22T13:36:26;3.25;;;2.17;;
12363;SDS011;6246;50.826;4.712;2023-07-22T13:38:52;5.57;;;3.10;;
12363;SDS011;6246;50.826;4.712;2023-07-22T13:41:19;4.57;;;2.58;;
12363;SDS011;6246;50.826;4.712;2023-07-22T13:43:45;2.80;;;2.40;;
12363;SDS011;6246;50.826;4.712;2023-07-22T13:46:11;3.30;;;2.80;;
12363;SDS011;6246;50.826;4.712;2023-07-22T13:48:37;4.90;;;2.70;;
12363;SDS011;6246;50.826;4.712;2023-07-22T13:51:03;5.97;;;2.67;;
12363;SDS011;6246;50.826;4.712;2023-07-22T13:53:29;5.35;;;2.20;;
12363;SDS011;6246;50.826;4.712;2023-07-22T13:55:55;4.10;;;2.47;;
12363;SDS011;6246;50.826;4.712;2023-07-22T13:58:21;5.20;;;2.60;;
12363;SDS011;6246;50.826;4.712;2023-07-22T14:00:47;4.82;;;2.00;;
12363;SDS011;6246;50.826;4.712;2023-07-22T14:03:13;2.08;;;1.98;;
12363;SDS011;6246;50.826;4.712;2023-07-22T14:05:39;3.42;;;2.28;;
12363;SDS011;6246;50.826;4.712;2023-07-22T14:08:06;5.18;;;2.30;;
12363;SDS011;6246;50.826;4.712;2023-07-22T14:10:32;3.88;;;2.15;;
12363;SDS011;6246;50.826;4.712;2023-07-22T14:12:58;4.78;;;2.13;;
12363;SDS011;6246;50.826;4.712;2023-07-22T14:15:24;5.43;;;2.58;;
12363;SDS011;6246;50.826;4.712;2023-07-22T14:17:50;3.97;;;2.22;;
12363;SDS011;6246;50.826;4.712;2023-07-22T14:20:16;2.20;;;2.10;;
12363;SDS011;6246;50.826;4.712;2023-07-22T14:22:42;6.85;;;2.72;;
12363;SDS011;6246;50.826;4.712;2023-07-22T14:25:08;4.63;;;2.05;;
12363;SDS011;6246;50.826;4.712;2023-07-22T14:27:34;4.57;;;2.78;;
12363;SDS011;6246;50.826;4.712;2023-07-22T14:30:01;5.90;;;2.70;;
12363;SDS011;6246;50.826;4.712;2023-07-22T14:32:29;3.58;;;2.10;;
12363;SDS011;6246;50.826;4.712;2023-07-22T14:35:08;7.60;;;2.47;;
12363;SDS011;6246;50.826;4.712;2023-07-22T14:37:36;5.20;;;2.33;;
12363;SDS011;6246;50.826;4.712;2023-07-22T14:40:03;2.67;;;2.47;;
12363;SDS011;6246;50.826;4.712;2023-07-22T14:42:30;4.10;;;2.63;;
12363;SDS011;6246;50.826;4.712;2023-07-22T14:44:56;3.13;;;2.42;;
12363;SDS011;6246;50.826;4.712;2023-07-22T14:47:22;2.58;;;2.17;;
12363;SDS011;6246;50.826;4.712;2023-07-22T14:49:48;4.93;;;2.47;;
12363;SDS011;6246;50.826;4.712;2023-07-22T14:52:14;4.38;;;2.55;;
12363;SDS011;6246;50.826;4.712;2023-07-22T14:54:39;4.47;;;2.00;;
12363;SDS011;6246;50.826;4.712;2023-07-22T14:57:06;4.20;;;2.42;;
12363;SDS011;6246;50.826;4.712;2023-07-22T14:59:32;2.75;;;2.22;;
12363;SDS011;6246;50.826;4.712;2023-07-22T15:01:58;3.25;;;2.28;;
12363;SDS011;6246;50.826;4.712;2023-07-22T15:04:24;2.17;;;2.00;;
12363;SDS011;6246;50.826;4.712;2023-07-22T15:06:50;2.10;;;1.90;;
12363;SDS011;6246;50.826;4.712;2023-07-22T15:09:16;4.32;;;2.30;;
12363;SDS011;6246;50.826;4.712;2023-07-22T15:11:42;3.45;;;1.92;;
12363;SDS011;6246;50.826;4.712;2023-07-22T15:14:08;3.42;;;2.30;;